Time;durP1;ratioP1;P1;durP2;ratioP2;P2;SDS_P1;SDS_P2;PMS_P1;PMS_P2;Temp;Humidity;BMP_temperature;BMP_pressure;BME280_temperature;BME280_humidity;BME280_pressure;Samples;Min_cycle;Max_cycle;Signal;HPM_P1;HPM_P2
2022/04/27 00:00:04;;;;;;;13.98;2.75;;;5.40;64.90;;;;;;4118847;28;20027;-85
2022/04/27 00:02:04;;;;;;;20.85;2.95;;;5.40;64.90;;;;;;4102043;28;20027;-85
2022/04/27 00:04:05;;;;;;;10.57;2.80;;;5.40;65.10;;;;;;4103368;28;20027;-85
2022/04/27 00:06:06;;;;;;;5.50;2.35;;;5.40;65.10;;;;;;4096268;28;20043;-87
2022/04/27 00:08:07;;;;;;;7.65;2.42;;;5.30;65.10;;;;;;4104706;28;20126;-84
2022/04/27 00:10:08;;;;;;;7.43;2.60;;;5.30;65.10;;;;;;4112172;28;20035;-86
2022/04/27 00:12:09;;;;;;;7.85;2.50;;;5.30;65.10;;;;;;4097001;28;20031;-84
2022/04/27 00:14:10;;;;;;;8.95;2.20;;;5.30;65.20;;;;;;4108008;28;20133;-86
2022/04/27 00:16:11;;;;;;;6.82;2.35;;;5.30;65.10;;;;;;4115211;28;20496;-85
2022/04/27 00:18:11;;;;;;;11.57;2.67;;;5.20;65.00;;;;;;4105694;28;20047;-83
2022/04/27 00:20:12;;;;;;;12.55;2.30;;;5.20;64.90;;;;;;4119515;28;20039;-85
2022/04/27 00:22:14;;;;;;;7.65;2.65;;;5.20;64.90;;;;;;4115716;28;20061;-85
2022/04/27 00:24:14;;;;;;;7.15;2.50;;;5.20;64.90;;;;;;4109775;28;20559;-84
2022/04/27 00:26:15;;;;;;;10.40;2.50;;;5.20;64.90;;;;;;4100540;28;20069;-86
2022/04/27 00:28:15;;;;;;;8.60;2.63;;;5.20;64.80;;;;;;4088836;28;20549;-85
2022/04/27 00:30:16;;;;;;;9.77;2.83;;;5.10;64.70;;;;;;4108233;28;20042;-85
2022/04/27 00:32:17;;;;;;;12.63;2.78;;;5.10;64.80;;;;;;4095107;28;20031;-87
2022/04/27 00:34:18;;;;;;;6.65;2.15;;;5.10;64.80;;;;;;4101834;28;20042;-86
2022/04/27 00:36:18;;;;;;;13.38;2.85;;;5.10;64.80;;;;;;4104352;28;20358;-85
2022/04/27 00:38:19;;;;;;;10.20;2.35;;;5.10;64.80;;;;;;4102293;28;20124;-85
2022/04/27 00:40:20;;;;;;;7.82;2.55;;;5.10;64.80;;;;;;4123522;28;20037;-85
2022/04/27 00:42:24;;;;;;;8.55;2.40;;;5.00;64.90;;;;;;4100180;28;20789;-86
2022/04/27 00:44:33;;;;;;;14.00;2.75;;;5.00;65.10;;;;;;4105289;28;20040;-86
2022/04/27 00:46:34;;;;;;;10.55;2.35;;;4.90;65.10;;;;;;4115332;28;20054;-85
2022/04/27 00:48:36;;;;;;;6.18;2.50;;;4.90;65.10;;;;;;4116204;28;20026;-86
2022/04/27 00:50:37;;;;;;;9.20;2.60;;;4.90;65.30;;;;;;4109434;28;20414;-85
2022/04/27 00:52:38;;;;;;;7.82;2.55;;;4.90;65.30;;;;;;4101671;28;20289;-85
2022/04/27 00:54:44;;;;;;;9.90;2.75;;;4.90;65.30;;;;;;4110377;28;20066;-86
2022/04/27 00:56:44;;;;;;;11.27;2.75;;;4.80;65.40;;;;;;4115822;28;20579;-86
2022/04/27 00:58:47;;;;;;;7.45;2.22;;;4.80;65.40;;;;;;4101563;28;20061;-87
2022/04/27 01:00:48;;;;;;;10.13;2.25;;;4.80;65.40;;;;;;4094868;28;20098;-86
2022/04/27 01:02:49;;;;;;;9.85;2.50;;;4.80;65.50;;;;;;4098580;28;20023;-85
2022/04/27 01:04:49;;;;;;;11.18;2.90;;;4.80;65.60;;;;;;4096961;28;20129;-84
2022/04/27 01:06:50;;;;;;;11.48;3.05;;;4.80;65.50;;;;;;4097372;28;20163;-85
2022/04/27 01:08:51;;;;;;;9.02;3.22;;;4.70;65.60;;;;;;4096318;28;20035;-85
2022/04/27 01:10:52;;;;;;;11.80;2.70;;;4.70;65.70;;;;;;4109575;28;20030;-84
2022/04/27 01:12:56;;;;;;;6.90;2.60;;;4.70;65.70;;;;;;4107650;28;20031;-84
2022/04/27 01:14:57;;;;;;;8.32;2.90;;;4.70;65.80;;;;;;4099809;28;20110;-84
2022/04/27 01:16:57;;;;;;;7.20;2.90;;;4.70;66.00;;;;;;4095899;28;20473;-84
2022/04/27 01:18:58;;;;;;;8.75;2.20;;;4.60;66.00;;;;;;4095007;28;20034;-85
2022/04/27 01:20:59;;;;;;;7.40;2.78;;;4.60;66.20;;;;;;4075206;29;20110;-84
2022/04/27 01:23:01;;;;;;;13.82;3.03;;;4.60;66.20;;;;;;4099726;28;20098;-85
2022/04/27 01:25:01;;;;;;;9.75;2.20;;;4.60;66.20;;;;;;4094296;28;20082;-85
2022/04/27 01:27:02;;;;;;;11.55;2.88;;;4.60;66.20;;;;;;4097068;28;20110;-84
2022/04/27 01:29:03;;;;;;;12.90;2.58;;;4.50;66.20;;;;;;4097031;28;20520;-85
2022/04/27 01:31:08;;;;;;;9.27;2.80;;;4.50;66.20;;;;;;4098966;28;20039;-84
2022/04/27 01:33:10;;;;;;;8.63;2.67;;;4.50;66.30;;;;;;4099498;28;20031;-87
2022/04/27 01:35:11;;;;;;;14.45;2.60;;;4.50;66.40;;;;;;4101120;28;20030;-87
2022/04/27 01:39:31;;;;;;;7.65;2.95;;;4.40;66.30;;;;;;4097397;28;20093;-84
2022/04/27 01:41:32;;;;;;;9.10;2.60;;;4.40;66.40;;;;;;4105294;28;20118;-84
2022/04/27 01:43:34;;;;;;;11.50;3.08;;;4.40;66.60;;;;;;4098024;28;20043;-83
2022/04/27 01:45:35;;;;;;;7.10;3.00;;;4.40;66.60;;;;;;4098479;28;20313;-84
2022/04/27 01:47:36;;;;;;;8.18;2.72;;;4.30;66.50;;;;;;4101519;28;20405;-85
2022/04/27 01:49:36;;;;;;;7.97;2.58;;;4.30;66.70;;;;;;4094095;28;20031;-84
2022/04/27 01:54:15;;;;;;;10.82;2.90;;;4.30;66.90;;;;;;4116576;28;20047;-88
2022/04/27 01:56:15;;;;;;;10.18;2.53;;;4.40;67.10;;;;;;4116175;28;20040;-85
2022/04/27 01:58:17;;;;;;;8.13;2.58;;;4.30;67.00;;;;;;4129456;28;20038;-86
2022/04/27 02:00:18;;;;;;;14.18;2.55;;;4.30;67.10;;;;;;4112594;28;20035;-85
2022/04/27 02:02:18;;;;;;;5.28;2.60;;;4.30;67.10;;;;;;4095281;28;20030;-85
2022/04/27 02:04:19;;;;;;;14.48;2.55;;;4.20;67.10;;;;;;4109343;28;20039;-86
2022/04/27 02:06:20;;;;;;;8.75;2.60;;;4.20;67.10;;;;;;4102762;28;20035;-86
2022/04/27 02:08:21;;;;;;;6.15;2.38;;;4.30;67.30;;;;;;4100657;28;20115;-84
2022/04/27 02:10:21;;;;;;;13.50;3.35;;;4.20;67.20;;;;;;4100031;28;20300;-86
2022/04/27 02:12:22;;;;;;;9.05;2.95;;;4.20;67.30;;;;;;4111196;28;20421;-84
2022/04/27 02:14:23;;;;;;;7.18;3.05;;;4.20;67.30;;;;;;4122073;28;20451;-84
2022/04/27 02:16:28;;;;;;;8.65;3.03;;;4.20;67.30;;;;;;4103618;28;20180;-86
2022/04/27 02:18:29;;;;;;;9.52;2.83;;;4.10;67.30;;;;;;4108113;28;20042;-86
2022/04/27 02:20:30;;;;;;;12.15;2.90;;;4.10;67.40;;;;;;4103450;28;20773;-86
2022/04/27 02:22:34;;;;;;;11.75;2.80;;;4.10;67.50;;;;;;4107258;28;20426;-85
2022/04/27 02:24:34;;;;;;;8.32;2.55;;;4.10;67.60;;;;;;4101967;28;20031;-84
2022/04/27 02:26:35;;;;;;;5.70;2.50;;;4.10;67.70;;;;;;4116960;28;20040;-85
2022/04/27 02:28:36;;;;;;;11.95;2.75;;;4.10;67.80;;;;;;4102131;28;20564;-84
2022/04/27 02:30:36;;;;;;;12.43;2.83;;;4.10;67.80;;;;;;4098587;28;20061;-86
2022/04/27 02:32:39;;;;;;;8.45;2.80;;;4.00;67.80;;;;;;4117274;28;20512;-85
2022/04/27 02:34:39;;;;;;;9.25;3.22;;;4.00;67.80;;;;;;4103630;28;20169;-86
2022/04/27 02:36:40;;;;;;;10.27;2.75;;;4.00;67.90;;;;;;4103891;28;20043;-85
2022/04/27 02:38:41;;;;;;;8.18;3.30;;;4.00;68.10;;;;;;4117147;28;20031;-87
2022/04/27 02:40:41;;;;;;;13.10;2.85;;;4.00;68.10;;;;;;4121118;28;20030;-85
2022/04/27 02:42:42;;;;;;;10.90;3.05;;;4.00;68.20;;;;;;4102000;28;20038;-85
2022/04/27 02:44:42;;;;;;;10.68;2.95;;;4.00;68.30;;;;;;4118898;28;20483;-85
2022/04/27 02:46:43;;;;;;;8.52;2.70;;;4.00;68.30;;;;;;4100488;28;20035;-85
2022/04/27 02:53:23;;;;;;;7.43;2.67;;;4.00;68.50;;;;;;4102791;28;20461;-85
2022/04/27 02:55:24;;;;;;;15.25;3.03;;;3.90;68.50;;;;;;4105958;28;20030;-86
2022/04/27 02:57:25;;;;;;;11.88;2.88;;;3.90;68.50;;;;;;4100353;28;20074;-85
2022/04/27 02:59:25;;;;;;;7.43;3.00;;;3.90;68.60;;;;;;4101004;28;20111;-85
2022/04/27 03:01:26;;;;;;;9.77;3.33;;;3.90;68.60;;;;;;4103541;28;20040;-85
2022/04/27 03:03:27;;;;;;;14.40;3.20;;;3.90;68.80;;;;;;4117797;28;20133;-86
2022/04/27 03:05:27;;;;;;;9.40;2.92;;;3.90;68.70;;;;;;4106808;28;20505;-85
2022/04/27 03:07:30;;;;;;;14.00;3.47;;;3.90;68.60;;;;;;4089110;29;20041;-86
2022/04/27 03:09:31;;;;;;;;;;;3.90;68.60;;;;;;4103535;28;20043;-86
2022/04/27 03:11:32;;;;;;;8.45;2.60;;;3.80;69.20;;;;;;4119821;28;19918;-85
2022/04/27 03:13:32;;;;;;;10.07;2.75;;;3.80;68.30;;;;;;4098871;28;20592;-87
2022/04/27 03:15:33;;;;;;;11.20;2.95;;;3.80;68.20;;;;;;4102454;28;20030;-85
2022/04/27 03:17:34;;;;;;;15.70;2.88;;;3.80;68.20;;;;;;4101673;28;20027;-85
2022/04/27 03:19:34;;;;;;;7.60;3.00;;;3.80;68.30;;;;;;4114281;28;20034;-85
2022/04/27 03:21:35;;;;;;;11.68;3.40;;;3.70;68.30;;;;;;4100195;28;20441;-85
2022/04/27 03:23:35;;;;;;;8.40;3.20;;;3.70;68.40;;;;;;4104387;28;20028;-87
2022/04/27 03:25:36;;;;;;;10.73;2.83;;;3.70;68.40;;;;;;4099787;28;20031;-86
2022/04/27 03:27:36;;;;;;;7.32;2.85;;;3.70;68.50;;;;;;4110122;28;20039;-84
2022/04/27 03:29:37;;;;;;;10.88;2.63;;;3.70;68.50;;;;;;4107135;28;20054;-85
2022/04/27 03:31:38;;;;;;;12.00;2.70;;;3.70;68.50;;;;;;4103809;28;20509;-86
2022/04/27 03:33:39;;;;;;;13.18;3.03;;;3.60;68.40;;;;;;4103224;28;20705;-85
2022/04/27 03:35:40;;;;;;;7.50;2.92;;;3.60;68.50;;;;;;4110051;28;21414;-86
2022/04/27 03:37:41;;;;;;;10.55;3.20;;;3.60;68.50;;;;;;4106743;28;20035;-86
2022/04/27 03:39:41;;;;;;;12.73;3.35;;;3.60;68.50;;;;;;4138719;28;20080;-87
2022/04/27 03:41:42;;;;;;;12.68;3.20;;;3.60;68.50;;;;;;4122203;28;20101;-86
2022/04/27 03:43:43;;;;;;;6.78;3.30;;;3.60;68.50;;;;;;4112892;28;20059;-85
2022/04/27 03:45:44;;;;;;;9.48;2.67;;;3.50;68.40;;;;;;4107495;28;20392;-84
2022/04/27 03:47:44;;;;;;;11.80;3.13;;;3.50;68.50;;;;;;4115387;28;20026;-86
2022/04/27 03:49:45;;;;;;;5.25;3.08;;;3.50;68.50;;;;;;4104580;28;20122;-86
2022/04/27 03:51:46;;;;;;;8.23;3.00;;;3.50;69.30;;;;;;4104173;28;20031;-84
2022/04/27 03:53:46;;;;;;;13.32;3.00;;;3.50;68.50;;;;;;4102827;28;20027;-84
2022/04/27 03:55:47;;;;;;;9.23;3.25;;;3.50;68.50;;;;;;4102421;28;20039;-85
2022/04/27 03:57:47;;;;;;;13.48;2.90;;;3.40;68.60;;;;;;4105225;28;20066;-85
2022/04/27 03:59:48;;;;;;;11.68;2.72;;;3.40;68.60;;;;;;4105869;28;20519;-85
2022/04/27 04:01:48;;;;;;;9.85;3.25;;;3.40;68.70;;;;;;4117696;28;20026;-84
2022/04/27 04:03:49;;;;;;;13.10;3.63;;;3.40;68.80;;;;;;4101542;28;20418;-84
2022/04/27 04:05:50;;;;;;;16.70;3.65;;;3.40;68.90;;;;;;4120038;28;20035;-85
2022/04/27 04:07:50;;;;;;;9.05;3.00;;;3.40;69.10;;;;;;4105668;28;20027;-84
2022/04/27 04:09:51;;;;;;;10.75;3.08;;;3.40;69.20;;;;;;4105162;28;20195;-84
2022/04/27 04:11:52;;;;;;;10.02;3.20;;;3.50;69.40;;;;;;4097908;28;20067;-87
2022/04/27 04:13:52;;;;;;;9.90;3.22;;;3.40;69.40;;;;;;4098916;28;20488;-85
2022/04/27 04:15:53;;;;;;;13.95;3.60;;;3.30;69.40;;;;;;4100904;28;20074;-83
2022/04/27 04:17:54;;;;;;;11.02;3.50;;;3.30;69.60;;;;;;4088619;29;20032;-85
2022/04/27 04:19:54;;;;;;;12.52;2.95;;;3.40;69.80;;;;;;4114553;28;20082;-86
2022/04/27 04:21:55;;;;;;;10.35;3.22;;;3.40;70.00;;;;;;4115570;28;20114;-85
2022/04/27 04:23:56;;;;;;;12.25;3.13;;;3.40;70.10;;;;;;4099593;28;20027;-85
2022/04/27 04:28:31;;;;;;;13.52;3.70;;;3.50;70.70;;;;;;4097463;28;20042;-85
2022/04/27 04:30:32;;;;;;;12.63;3.53;;;3.50;70.90;;;;;;4094809;28;20035;-84
2022/04/27 04:32:37;;;;;;;11.40;3.53;;;3.50;71.00;;;;;;4103256;28;20115;-85
2022/04/27 04:34:38;;;;;;;14.50;3.45;;;3.50;71.40;;;;;;4100706;28;20033;-85
2022/04/27 04:36:38;;;;;;;12.18;3.85;;;3.60;71.70;;;;;;4110912;28;20058;-85
2022/04/27 04:38:39;;;;;;;13.95;4.22;;;3.60;72.00;;;;;;4110007;28;20031;-85
2022/04/27 04:40:40;;;;;;;10.57;3.80;;;3.70;72.40;;;;;;4100588;28;20035;-86
2022/04/27 04:42:41;;;;;;;12.38;4.00;;;3.70;73.40;;;;;;4092657;28;20417;-86
2022/04/27 04:44:41;;;;;;;9.93;3.80;;;3.70;72.90;;;;;;4092600;28;20057;-85
2022/04/27 04:46:42;;;;;;;8.68;3.47;;;3.80;73.20;;;;;;4112242;28;20030;-86
2022/04/27 04:48:45;;;;;;;8.32;3.53;;;3.90;73.30;;;;;;4095788;28;20402;-86
2022/04/27 04:50:46;;;;;;;15.15;3.83;;;3.90;73.50;;;;;;4098850;28;20074;-85
2022/04/27 04:52:47;;;;;;;9.18;3.53;;;4.00;73.70;;;;;;4100949;28;20031;-85
2022/04/27 04:54:50;;;;;;;14.10;3.55;;;4.10;73.90;;;;;;4098943;28;20031;-85
2022/04/27 04:56:51;;;;;;;17.70;4.35;;;4.20;74.10;;;;;;4090046;28;20046;-85
2022/04/27 04:58:51;;;;;;;16.00;3.88;;;4.20;74.10;;;;;;4097693;28;20031;-85
2022/04/27 05:00:52;;;;;;;10.75;3.80;;;4.30;74.10;;;;;;4092586;28;20730;-85
2022/04/27 05:02:53;;;;;;;15.30;4.13;;;4.40;74.40;;;;;;4094032;28;20036;-87
2022/04/27 05:04:54;;;;;;;9.23;3.58;;;4.50;74.60;;;;;;4105901;28;20061;-84
2022/04/27 05:06:55;;;;;;;11.27;3.58;;;4.60;74.70;;;;;;4103650;28;20398;-87
2022/04/27 05:08:55;;;;;;;13.70;3.65;;;4.70;74.70;;;;;;4086453;28;20035;-85
2022/04/27 05:10:56;;;;;;;17.73;5.53;;;4.80;74.80;;;;;;4092372;28;20027;-83
2022/04/27 05:12:57;;;;;;;15.23;4.03;;;4.90;74.90;;;;;;4109140;28;20637;-83
2022/04/27 05:14:57;;;;;;;13.90;4.32;;;5.00;74.80;;;;;;4108879;28;20030;-83
2022/04/27 05:16:58;;;;;;;10.18;3.67;;;5.10;74.60;;;;;;4110082;28;20038;-83
2022/04/27 05:18:59;;;;;;;17.30;4.00;;;5.20;74.50;;;;;;4119706;28;20023;-83
2022/04/27 05:20:59;;;;;;;9.65;3.70;;;5.20;74.40;;;;;;4105082;28;20031;-83
2022/04/27 05:23:00;;;;;;;12.88;3.70;;;5.30;74.50;;;;;;4105282;28;20031;-83
2022/04/27 05:25:02;;;;;;;10.63;3.35;;;5.40;74.40;;;;;;4107496;28;20030;-83
2022/04/27 05:27:03;;;;;;;13.35;3.30;;;5.50;74.20;;;;;;4105289;28;20141;-83
2022/04/27 05:33:42;;;;;;;14.57;3.72;;;5.80;74.00;;;;;;4117433;28;20118;-84
2022/04/27 05:35:43;;;;;;;19.23;3.65;;;5.90;73.90;;;;;;4102349;28;20067;-84
2022/04/27 05:37:43;;;;;;;16.98;3.13;;;6.00;73.90;;;;;;4119136;28;20034;-82
2022/04/27 05:39:44;;;;;;;14.55;3.10;;;6.10;73.70;;;;;;4109679;28;20043;-84
2022/04/27 05:41:45;;;;;;;6.38;2.78;;;6.20;73.50;;;;;;4104470;28;20020;-83
2022/04/27 05:43:47;;;;;;;9.32;3.00;;;6.30;73.50;;;;;;4109129;28;20027;-83
2022/04/27 05:45:48;;;;;;;9.82;2.80;;;6.40;73.50;;;;;;4112141;28;20019;-83
2022/04/27 05:47:49;;;;;;;12.38;3.10;;;6.40;73.00;;;;;;4105715;28;20018;-83
2022/04/27 05:49:50;;;;;;;18.85;3.85;;;6.50;72.60;;;;;;4115383;28;20130;-83
2022/04/27 05:51:51;;;;;;;15.73;3.30;;;6.60;71.90;;;;;;4107179;28;20022;-83
2022/04/27 05:53:51;;;;;;;14.88;3.28;;;6.70;71.60;;;;;;4127624;28;20121;-83
2022/04/27 05:55:52;;;;;;;14.93;3.20;;;6.70;71.20;;;;;;4107276;28;21829;-83
2022/04/27 05:57:52;;;;;;;11.40;3.25;;;6.80;70.80;;;;;;4115620;28;20137;-83
2022/04/27 05:59:53;;;;;;;14.30;3.72;;;6.90;70.30;;;;;;4110638;28;20042;-84
2022/04/27 06:01:54;;;;;;;12.38;3.20;;;6.90;70.00;;;;;;4101260;28;20034;-83
2022/04/27 06:03:55;;;;;;;15.45;2.90;;;7.00;69.80;;;;;;4108297;28;20533;-83
2022/04/27 06:05:55;;;;;;;11.63;3.05;;;7.00;69.70;;;;;;4107770;28;20070;-84
2022/04/27 06:07:56;;;;;;;11.27;2.70;;;7.00;69.50;;;;;;4108248;28;20212;-84
2022/04/27 06:09:57;;;;;;;12.27;2.85;;;7.10;69.10;;;;;;4116847;28;20050;-84
2022/04/27 06:11:58;;;;;;;14.32;2.80;;;7.10;69.00;;;;;;4115687;28;20065;-83
2022/04/27 06:13:58;;;;;;;10.27;2.85;;;7.20;68.70;;;;;;4130897;28;20030;-82
2022/04/27 06:15:59;;;;;;;7.45;2.60;;;7.20;68.70;;;;;;4110737;28;20031;-84
2022/04/27 06:17:59;;;;;;;10.93;3.00;;;7.20;68.60;;;;;;4106764;28;20027;-84
2022/04/27 06:20:00;;;;;;;11.32;2.55;;;7.30;68.50;;;;;;4110223;28;20055;-83
2022/04/27 06:22:00;;;;;;;17.52;2.60;;;7.40;68.60;;;;;;4106696;28;20558;-84
2022/04/27 06:24:04;;;;;;;9.07;2.35;;;7.40;68.60;;;;;;4127260;28;20030;-85
2022/04/27 06:26:08;;;;;;;11.45;2.58;;;7.50;68.50;;;;;;4111322;28;20130;-84
2022/04/27 06:28:08;;;;;;;10.73;2.75;;;7.60;68.20;;;;;;4110362;28;20032;-83
2022/04/27 06:30:10;;;;;;;8.90;2.20;;;7.70;67.50;;;;;;4116068;28;20045;-83
2022/04/27 06:32:10;;;;;;;10.38;2.33;;;7.60;66.80;;;;;;4115932;28;20030;-84
2022/04/27 06:34:12;;;;;;;13.35;2.38;;;7.80;66.70;;;;;;4104316;28;20512;-83
2022/04/27 06:36:12;;;;;;;13.80;2.67;;;7.80;66.20;;;;;;4128180;28;20073;-85
2022/04/27 06:38:13;;;;;;;11.85;2.00;;;7.90;66.10;;;;;;4106105;28;20035;-84
2022/04/27 06:40:14;;;;;;;13.20;2.03;;;7.90;65.80;;;;;;4108123;28;20126;-85
2022/04/27 06:42:15;;;;;;;10.10;2.15;;;8.00;65.80;;;;;;4108221;28;20122;-83
2022/04/27 06:44:15;;;;;;;11.63;2.50;;;8.10;65.30;;;;;;4110337;28;20041;-84
2022/04/27 06:46:16;;;;;;;6.03;2.60;;;8.20;64.80;;;;;;4110184;28;20023;-84
2022/04/27 06:48:17;;;;;;;8.20;2.10;;;8.20;64.20;;;;;;4108024;28;20035;-83
2022/04/27 06:50:17;;;;;;;9.25;2.25;;;8.30;64.00;;;;;;4109703;28;20964;-85
2022/04/27 06:52:18;;;;;;;12.40;2.67;;;8.50;63.90;;;;;;4110993;28;20066;-84
2022/04/27 06:54:20;;;;;;;8.88;1.95;;;8.40;63.60;;;;;;4106259;28;20027;-83
2022/04/27 06:56:21;;;;;;;17.42;2.22;;;8.50;63.20;;;;;;4105495;28;20035;-84
2022/04/27 06:58:21;;;;;;;11.65;2.40;;;8.50;62.80;;;;;;4108949;28;20039;-84
2022/04/27 07:00:22;;;;;;;3.58;2.10;;;8.50;62.70;;;;;;4106819;28;20043;-83
2022/04/27 07:02:23;;;;;;;13.48;3.03;;;8.60;62.10;;;;;;4125542;28;20061;-85
2022/04/27 07:04:23;;;;;;;9.07;2.20;;;8.60;62.10;;;;;;4124789;28;20023;-84
2022/04/27 07:06:24;;;;;;;9.40;2.25;;;8.70;61.80;;;;;;4111726;28;20038;-84
2022/04/27 07:08:25;;;;;;;7.72;2.40;;;8.80;62.00;;;;;;4110986;28;20090;-83
2022/04/27 07:10:26;;;;;;;7.00;2.17;;;8.80;61.20;;;;;;4099731;28;20042;-83
2022/04/27 07:12:27;;;;;;;6.18;2.00;;;8.90;61.70;;;;;;4108447;28;20031;-83
2022/04/27 07:14:27;;;;;;;11.05;2.63;;;8.90;60.60;;;;;;4109268;28;20023;-83
2022/04/27 07:16:28;;;;;;;12.68;2.53;;;8.90;60.30;;;;;;4112628;28;20039;-83
2022/04/27 07:18:29;;;;;;;13.77;2.78;;;9.00;60.50;;;;;;4108346;28;20023;-83
2022/04/27 07:20:30;;;;;;;14.63;2.58;;;9.00;60.40;;;;;;4104915;28;20039;-83
2022/04/27 07:22:31;;;;;;;8.30;2.42;;;9.10;60.30;;;;;;4122077;28;20702;-84
2022/04/27 07:24:32;;;;;;;12.75;2.65;;;9.10;59.90;;;;;;4123860;28;20122;-83
2022/04/27 07:26:33;;;;;;;12.13;2.42;;;9.20;59.60;;;;;;4118988;28;20089;-84
2022/04/27 07:28:38;;;;;;;12.32;2.88;;;9.20;59.30;;;;;;4104692;28;20059;-83
2022/04/27 07:30:39;;;;;;;9.00;2.53;;;9.30;59.50;;;;;;4089482;29;20110;-84
2022/04/27 07:32:40;;;;;;;13.05;2.70;;;9.30;59.10;;;;;;4104793;28;20090;-83
2022/04/27 07:34:40;;;;;;;8.98;2.90;;;9.30;59.10;;;;;;4109691;28;20024;-85
2022/04/27 07:36:41;;;;;;;8.80;2.38;;;9.30;58.90;;;;;;4118502;28;20086;-86
2022/04/27 07:38:41;;;;;;;11.60;2.67;;;9.40;58.80;;;;;;4111243;28;20610;-84
2022/04/27 07:40:42;;;;;;;10.43;2.63;;;9.40;58.90;;;;;;4112567;28;20027;-84
2022/04/27 07:42:43;;;;;;;6.20;2.05;;;9.50;58.90;;;;;;4103772;28;20038;-84
2022/04/27 07:44:43;;;;;;;7.95;2.28;;;9.50;59.00;;;;;;4125759;28;20022;-84
2022/04/27 07:46:47;;;;;;;9.60;1.90;;;9.60;58.50;;;;;;4122586;28;20086;-84
2022/04/27 07:48:48;;;;;;;16.35;2.20;;;9.60;58.60;;;;;;4109820;28;20043;-83
2022/04/27 07:50:48;;;;;;;13.27;2.08;;;9.70;57.80;;;;;;4125760;28;20045;-84
2022/04/27 07:52:49;;;;;;;6.63;2.30;;;9.70;57.10;;;;;;4110992;28;20027;-84
2022/04/27 07:54:50;;;;;;;13.45;2.33;;;9.70;56.60;;;;;;4106849;28;20023;-84
2022/04/27 07:56:50;;;;;;;7.95;2.38;;;9.80;56.90;;;;;;4111541;28;20035;-85
2022/04/27 07:58:51;;;;;;;10.10;2.40;;;9.80;57.00;;;;;;4108066;28;20061;-84
2022/04/27 08:00:51;;;;;;;11.93;2.08;;;9.80;57.40;;;;;;4108630;28;20043;-84
2022/04/27 08:02:52;;;;;;;9.18;1.85;;;9.90;57.00;;;;;;4108218;28;20059;-85
2022/04/27 08:04:53;;;;;;;10.43;2.22;;;9.90;56.70;;;;;;4110183;28;20027;-85
2022/04/27 08:06:53;;;;;;;5.43;2.38;;;9.90;56.60;;;;;;4111204;28;20059;-84
2022/04/27 08:08:54;;;;;;;13.05;2.40;;;10.00;56.90;;;;;;4112414;28;20031;-84
2022/04/27 08:10:55;;;;;;;6.22;2.03;;;10.10;56.80;;;;;;4118853;28;20146;-84
2022/04/27 08:12:56;;;;;;;8.40;2.10;;;10.10;57.00;;;;;;4108369;28;20086;-84
2022/04/27 08:14:56;;;;;;;6.55;2.22;;;10.20;56.60;;;;;;4108349;28;20035;-85
2022/04/27 08:16:59;;;;;;;12.23;2.42;;;10.20;56.00;;;;;;4106844;28;20082;-84
2022/04/27 08:18:59;;;;;;;6.78;2.22;;;10.30;56.00;;;;;;4116740;28;20541;-84
2022/04/27 08:21:15;;;;;;;10.23;1.98;;;10.30;55.60;;;;;;4106374;28;20060;-84
2022/04/27 08:23:17;;;;;;;14.18;2.30;;;10.30;55.90;;;;;;4110009;28;20066;-84
2022/04/27 08:25:18;;;;;;;8.32;2.10;;;10.40;56.10;;;;;;4108708;28;20469;-85
2022/04/27 08:27:19;;;;;;;9.80;2.10;;;10.40;55.70;;;;;;4105613;28;20066;-84
2022/04/27 08:29:19;;;;;;;11.50;2.20;;;10.50;55.90;;;;;;4118884;28;20034;-84
2022/04/27 08:31:20;;;;;;;7.00;2.00;;;10.70;56.00;;;;;;4110398;28;20114;-84
2022/04/27 08:33:21;;;;;;;7.65;2.00;;;10.60;55.90;;;;;;4111205;28;20039;-84
2022/04/27 08:35:22;;;;;;;6.68;1.92;;;10.80;55.10;;;;;;4127423;28;20113;-85
2022/04/27 08:37:22;;;;;;;12.50;1.88;;;10.80;55.20;;;;;;4109288;28;20047;-84
2022/04/27 08:39:23;;;;;;;10.27;1.80;;;10.90;55.10;;;;;;4126476;28;20045;-85
2022/04/27 08:41:24;;;;;;;6.88;1.80;;;11.00;54.40;;;;;;4105993;28;20031;-84
2022/04/27 08:43:26;;;;;;;9.07;1.70;;;11.00;54.20;;;;;;4124252;28;20099;-85
2022/04/27 08:45:28;;;;;;;9.18;2.08;;;11.10;53.70;;;;;;4127967;28;20023;-85
2022/04/27 08:47:30;;;;;;;8.20;2.10;;;11.10;53.80;;;;;;4107243;28;20035;-85
2022/04/27 08:49:34;;;;;;;4.13;1.52;;;11.20;53.60;;;;;;4110484;28;20057;-85
2022/04/27 08:51:37;;;;;;;9.20;1.75;;;11.20;53.60;;;;;;4095106;29;20042;-85
2022/04/27 08:53:37;;;;;;;7.38;1.92;;;11.30;53.50;;;;;;4109301;28;20042;-84
2022/04/27 08:55:40;;;;;;;5.63;1.70;;;11.40;53.50;;;;;;4107698;28;20027;-84
2022/04/27 08:57:43;;;;;;;4.90;1.70;;;11.30;52.70;;;;;;4105178;28;20043;-85
2022/04/27 08:59:43;;;;;;;6.32;1.83;;;11.40;51.70;;;;;;4107359;28;20031;-84
2022/04/27 09:01:44;;;;;;;8.27;1.70;;;11.50;51.60;;;;;;4110041;28;20038;-84
2022/04/27 09:03:46;;;;;;;10.35;2.13;;;11.50;52.10;;;;;;4109801;28;20740;-84
2022/04/27 09:05:56;;;;;;;5.15;1.77;;;11.50;51.90;;;;;;4123395;28;20073;-84
2022/04/27 09:07:57;;;;;;;7.10;1.55;;;11.60;51.40;;;;;;4106066;28;20027;-84
2022/04/27 09:09:58;;;;;;;4.95;1.10;;;11.80;51.40;;;;;;4108572;28;20623;-84
2022/04/27 09:12:00;;;;;;;9.95;1.70;;;11.80;50.90;;;;;;4081357;29;20020;-84
2022/04/27 09:14:02;;;;;;;7.63;1.77;;;11.90;50.40;;;;;;4104643;28;20049;-84
2022/04/27 09:16:03;;;;;;;8.02;1.60;;;11.90;50.20;;;;;;4109123;28;20026;-84
2022/04/27 09:22:45;;;;;;;8.45;1.90;;;12.00;50.00;;;;;;4111975;28;20460;-84
2022/04/27 09:24:53;;;;;;;4.97;1.73;;;12.10;50.00;;;;;;4104749;28;20563;-85
2022/04/27 09:27:12;;;;;;;7.57;2.33;;;12.00;49.50;;;;;;4109425;28;20097;-85
2022/04/27 09:29:23;;;;;;;9.50;1.58;;;12.20;49.40;;;;;;4107469;28;20051;-85
2022/04/27 09:31:30;;;;;;;4.50;1.67;;;12.10;48.80;;;;;;4109666;28;20030;-84
2022/04/27 09:33:38;;;;;;;7.78;1.45;;;12.10;48.70;;;;;;4122194;28;20149;-84
2022/04/27 09:35:39;;;;;;;9.18;1.92;;;12.20;49.00;;;;;;4100319;28;20038;-85
2022/04/27 09:37:44;;;;;;;5.72;1.30;;;12.30;49.00;;;;;;4119898;28;20026;-85
2022/04/27 09:39:58;;;;;;;11.10;1.77;;;12.30;49.10;;;;;;4107173;28;20038;-85
2022/04/27 09:42:04;;;;;;;10.57;2.20;;;12.40;48.90;;;;;;4104538;28;20050;-85
2022/04/27 09:44:05;;;;;;;7.95;2.10;;;12.40;48.80;;;;;;4104743;28;20918;-85
2022/04/27 09:46:22;;;;;;;8.57;2.25;;;12.40;48.50;;;;;;4100146;28;20027;-85
2022/04/27 09:48:23;;;;;;;7.47;1.73;;;12.50;48.70;;;;;;4107004;28;20031;-84
2022/04/27 09:50:24;;;;;;;6.93;2.03;;;12.50;47.80;;;;;;4100798;28;20045;-85
2022/04/27 09:52:28;;;;;;;10.80;2.30;;;12.60;47.80;;;;;;4103359;28;20027;-85
2022/04/27 09:54:30;;;;;;;5.90;1.98;;;12.50;47.40;;;;;;4106397;28;20482;-85
2022/04/27 09:56:37;;;;;;;9.30;1.77;;;12.60;47.00;;;;;;4080687;29;20501;-85
2022/04/27 09:58:43;;;;;;;7.13;1.50;;;12.60;47.40;;;;;;4105128;28;20477;-85
2022/04/27 10:00:50;;;;;;;8.82;2.05;;;12.50;47.10;;;;;;4105867;28;20033;-86
2022/04/27 10:02:52;;;;;;;9.40;2.42;;;12.60;47.30;;;;;;4102624;28;20031;-84
2022/04/27 10:04:54;;;;;;;6.82;1.95;;;12.60;47.60;;;;;;4098978;28;20520;-84
2022/04/27 10:06:58;;;;;;;14.65;2.50;;;12.60;47.20;;;;;;4124976;28;20109;-85
2022/04/27 10:09:00;;;;;;;12.07;2.70;;;12.60;47.10;;;;;;4128302;28;20026;-84
2022/04/27 10:11:04;;;;;;;6.87;1.70;;;12.70;47.30;;;;;;4122969;28;20034;-84
2022/04/27 10:13:08;;;;;;;6.55;2.10;;;12.70;47.60;;;;;;4106433;28;20057;-84
2022/04/27 10:15:09;;;;;;;13.07;2.50;;;12.70;47.60;;;;;;4108293;28;20028;-85
2022/04/27 10:17:12;;;;;;;7.05;2.25;;;12.80;48.30;;;;;;4104320;28;20220;-85
2022/04/27 10:19:12;;;;;;;6.68;2.22;;;12.90;47.60;;;;;;4106208;28;20046;-85
2022/04/27 10:21:14;;;;;;;4.05;1.83;;;12.80;47.40;;;;;;4111412;28;20043;-85
2022/04/27 10:23:27;;;;;;;5.40;1.83;;;13.00;47.50;;;;;;4097864;28;20047;-84
2022/04/27 10:25:28;;;;;;;9.60;2.25;;;12.90;46.80;;;;;;4115757;28;20066;-85
2022/04/27 10:27:40;;;;;;;7.78;1.95;;;13.00;46.80;;;;;;4110528;28;20034;-84
2022/04/27 10:29:43;;;;;;;4.95;1.67;;;13.00;47.10;;;;;;4102409;28;20062;-84
2022/04/27 10:31:44;;;;;;;19.90;2.45;;;13.00;46.60;;;;;;4101676;28;20023;-84
2022/04/27 10:33:51;;;;;;;5.97;1.58;;;13.10;46.60;;;;;;4126405;28;20049;-84
2022/04/27 10:35:51;;;;;;;9.73;2.55;;;13.10;46.40;;;;;;4108073;28;20513;-85
2022/04/27 10:37:59;;;;;;;4.22;1.63;;;13.10;45.90;;;;;;4112262;28;20110;-84
2022/04/27 10:40:25;;;;;;;6.90;2.33;;;13.10;45.60;;;;;;4103613;28;20035;-84
2022/04/27 10:42:29;;;;;;;4.75;1.80;;;13.20;45.70;;;;;;4104929;28;20197;-85
2022/04/27 10:44:50;;;;;;;7.28;1.92;;;13.20;45.50;;;;;;4106318;28;20029;-85
2022/04/27 10:46:51;;;;;;;5.03;2.10;;;13.20;45.10;;;;;;4103218;28;20019;-85
2022/04/27 10:48:52;;;;;;;11.20;2.38;;;13.20;45.30;;;;;;4107229;28;20053;-84
2022/04/27 10:51:01;;;;;;;8.23;2.28;;;13.30;45.60;;;;;;4106367;28;20035;-85
2022/04/27 10:53:16;;;;;;;6.40;2.03;;;13.30;45.00;;;;;;4107635;28;20086;-86
2022/04/27 10:55:35;;;;;;;6.60;2.65;;;13.20;45.10;;;;;;4107765;28;20030;-85
2022/04/27 10:57:41;;;;;;;7.68;2.55;;;13.20;45.40;;;;;;4109474;28;20042;-84